Time;durP1;ratioP1;P1;durP2;ratioP2;P2;SDS_P1;SDS_P2;PMS_P1;PMS_P2;Temp;Humidity;BMP_temperature;BMP_pressure;BME280_temperature;BME280_humidity;BME280_pressure;Samples;Min_cycle;Max_cycle;Signal;HPM_P1;HPM_P2
2022/07/16 00:03:34;;;;;;;0.75;0.50;;;;;;;19.77;80.65;100987.25;5009649;28;20124;-65
2022/07/16 00:05:59;;;;;;;0.80;0.70;;;;;;;19.80;80.71;100979.00;5012216;28;20101;-65
2022/07/16 00:08:24;;;;;;;0.60;0.60;;;;;;;19.66;79.98;100979.19;5010484;28;20387;-65
2022/07/16 00:10:50;;;;;;;0.60;0.55;;;;;;;19.71;80.19;100973.25;5011747;28;20030;-65
2022/07/16 00:13:16;;;;;;;1.95;0.30;;;;;;;19.70;79.94;100973.66;5011469;28;20045;-65
2022/07/16 00:15:41;;;;;;;0.30;0.30;;;;;;;19.65;80.17;100971.38;5011569;28;20099;-65
2022/07/16 00:20:51;;;;;;;0.65;0.57;;;;;;;19.63;80.05;100958.13;5011809;28;20116;-65
2022/07/16 00:23:16;;;;;;;0.60;0.43;;;;;;;19.66;79.92;100951.84;5011408;28;20522;-65
2022/07/16 00:25:42;;;;;;;0.50;0.47;;;;;;;19.66;79.66;100954.59;5011811;28;20065;-65
2022/07/16 00:28:07;;;;;;;1.60;0.50;;;;;;;19.67;80.17;100950.66;5003578;28;20383;-65
2022/07/16 00:30:33;;;;;;;0.90;0.60;;;;;;;19.73;79.97;100950.97;4991896;28;20038;-65
2022/07/16 00:32:59;;;;;;;1.17;0.40;;;;;;;19.55;80.56;100948.44;4991695;28;20033;-65
2022/07/16 00:35:24;;;;;;;1.73;0.70;;;;;;;19.64;80.16;100939.75;5010739;28;20525;-65
2022/07/16 00:37:50;;;;;;;0.70;0.50;;;;;;;19.59;80.51;100943.72;5010290;28;20029;-65
2022/07/16 00:40:15;;;;;;;1.13;0.52;;;;;;;19.60;80.51;100950.75;5011282;28;20038;-65
2022/07/16 00:42:41;;;;;;;0.30;0.30;;;;;;;19.56;80.76;100938.28;5011339;28;20371;-65
2022/07/16 00:45:07;;;;;;;1.60;0.52;;;;;;;19.58;80.80;100936.72;5010989;28;20562;-65
2022/07/16 00:47:33;;;;;;;0.43;0.43;;;;;;;19.58;81.17;100942.19;4993977;28;20038;-65
2022/07/16 00:49:59;;;;;;;2.95;0.63;;;;;;;19.61;81.99;100940.56;4991496;28;20426;-65
2022/07/16 00:52:24;;;;;;;3.22;0.50;;;;;;;19.55;82.68;100937.50;4991504;28;20023;-66
2022/07/16 00:54:50;;;;;;;0.60;0.60;;;;;;;19.57;83.73;100928.91;5002452;28;20038;-66
2022/07/16 00:57:15;;;;;;;1.65;0.60;;;;;;;19.48;84.42;100923.94;5011112;28;20030;-66
2022/07/16 00:59:41;;;;;;;2.78;0.50;;;;;;;19.40;84.95;100916.22;5010244;28;20069;-66
2022/07/16 01:02:07;;;;;;;2.05;0.70;;;;;;;19.37;85.28;100920.56;5011280;28;20556;-66
2022/07/16 01:04:33;;;;;;;1.83;0.70;;;;;;;19.31;85.55;100911.25;5008213;28;20478;-66
2022/07/16 01:06:59;;;;;;;1.13;0.60;;;;;;;19.26;86.13;100895.28;5011329;28;20029;-66
2022/07/16 01:09:26;;;;;;;0.85;0.63;;;;;;;19.23;86.41;100898.84;5009972;28;20057;-66
2022/07/16 01:11:52;;;;;;;0.73;0.73;;;;;;;19.25;86.35;100899.22;5011192;28;20022;-66
2022/07/16 01:14:19;;;;;;;1.25;0.88;;;;;;;19.16;86.75;100900.88;4993418;28;20399;-66
2022/07/16 01:16:45;;;;;;;0.88;0.52;;;;;;;19.11;87.25;100896.63;4991458;28;20034;-66
2022/07/16 01:19:12;;;;;;;1.00;0.70;;;;;;;19.13;87.29;100898.94;4990430;28;20057;-66
2022/07/16 01:21:38;;;;;;;1.60;0.70;;;;;;;19.13;86.97;100888.81;4991278;28;20417;-66
2022/07/16 01:24:04;;;;;;;1.73;0.68;;;;;;;19.05;87.43;100884.59;4986346;28;20487;-66
2022/07/16 01:26:29;;;;;;;0.80;0.80;;;;;;;19.00;88.25;100884.25;4991499;28;20049;-66
2022/07/16 01:28:55;;;;;;;0.73;0.73;;;;;;;18.93;88.69;100880.41;4990355;28;20084;-66
2022/07/16 01:31:20;;;;;;;1.95;0.80;;;;;;;18.85;89.11;100878.19;5007024;28;20026;-66
2022/07/16 01:34:24;;;;;;;1.30;0.90;;;;;;;18.78;89.83;100880.97;5014397;28;20052;-66
2022/07/16 01:36:31;;;;;;;1.08;0.60;;;;;;;18.75;90.24;100876.34;5014372;28;20044;-66
2022/07/16 01:38:57;;;;;;;1.52;0.73;;;;;;;18.77;90.21;100874.75;5013497;28;20029;-66
2022/07/16 01:41:22;;;;;;;1.40;0.68;;;;;;;18.79;90.54;100863.44;5014214;28;20030;-66
2022/07/16 01:43:48;;;;;;;1.27;0.82;;;;;;;18.83;90.33;100862.19;5014854;28;20378;-66
2022/07/16 01:46:13;;;;;;;2.15;0.88;;;;;;;18.84;90.72;100854.78;5014262;28;20100;-67
2022/07/16 01:48:39;;;;;;;3.03;1.00;;;;;;;18.84;90.96;100862.97;5013106;28;20025;-66
2022/07/16 01:51:04;;;;;;;1.73;1.00;;;;;;;18.87;91.10;100856.72;5014134;28;20077;-67
2022/07/16 01:53:30;;;;;;;6.60;1.00;;;;;;;18.86;91.09;100858.66;5014507;28;20026;-67
2022/07/16 01:55:57;;;;;;;1.95;0.88;;;;;;;18.83;91.85;100847.78;5014338;28;20375;-66
2022/07/16 01:58:23;;;;;;;1.42;0.77;;;;;;;18.79;92.20;100845.06;5012210;28;20391;-66
2022/07/16 02:00:48;;;;;;;0.82;0.73;;;;;;;18.80;92.30;100852.09;5014273;28;20053;-66
2022/07/16 02:03:14;;;;;;;1.77;1.23;;;;;;;18.76;92.56;100848.63;5011409;28;20058;-66
2022/07/16 02:05:41;;;;;;;1.17;1.00;;;;;;;18.76;92.92;100840.44;5013737;28;20038;-66
2022/07/16 02:08:07;;;;;;;1.00;0.82;;;;;;;18.72;92.95;100841.66;5013049;28;20018;-66
2022/07/16 02:10:33;;;;;;;2.03;1.10;;;;;;;18.65;93.19;100853.44;5014059;28;20501;-66
2022/07/16 02:12:58;;;;;;;2.25;0.93;;;;;;;18.70;92.83;100839.31;5013854;28;20061;-66
2022/07/16 02:15:24;;;;;;;3.35;1.10;;;;;;;18.73;92.68;100843.22;5013448;28;20096;-66
2022/07/16 02:17:49;;;;;;;3.05;1.15;;;;;;;18.68;93.55;100840.91;5012408;28;20041;-67
2022/07/16 02:20:15;;;;;;;1.25;0.98;;;;;;;18.64;93.75;100848.38;5013836;28;20382;-66
2022/07/16 02:22:41;;;;;;;2.30;1.20;;;;;;;18.65;93.63;100841.72;5014011;28;20053;-67
2022/07/16 02:25:08;;;;;;;2.80;1.50;;;;;;;18.63;93.98;100831.22;5013169;28;20030;-66
2022/07/16 02:27:34;;;;;;;3.00;1.38;;;;;;;18.64;94.07;100840.19;5013288;28;20116;-66
2022/07/16 02:29:59;;;;;;;1.60;1.23;;;;;;;18.61;94.13;100838.25;5013191;28;20073;-66
2022/07/16 02:32:27;;;;;;;2.53;1.30;;;;;;;18.48;94.55;100832.53;5013466;28;20038;-66
2022/07/16 02:34:52;;;;;;;2.03;1.40;;;;;;;18.50;94.35;100834.84;5012911;28;20037;-66
2022/07/16 02:37:18;;;;;;;1.75;1.30;;;;;;;18.42;95.13;100827.88;5013071;28;20042;-66
2022/07/16 02:39:44;;;;;;;1.92;1.20;;;;;;;18.45;95.39;100832.53;5012962;28;20038;-67
2022/07/16 02:42:09;;;;;;;1.92;1.40;;;;;;;18.44;95.89;100825.56;5012832;28;20042;-66
2022/07/16 02:44:35;;;;;;;1.63;1.40;;;;;;;18.45;95.63;100829.81;5013540;28;20033;-66
2022/07/16 02:47:00;;;;;;;2.30;1.40;;;;;;;18.43;95.57;100843.09;5013117;28;20704;-66
2022/07/16 02:49:26;;;;;;;1.90;1.20;;;;;;;18.43;95.46;100840.34;5011617;28;20489;-66
2022/07/16 02:51:51;;;;;;;2.75;1.70;;;;;;;18.45;95.93;100844.25;5013070;28;20033;-66
2022/07/16 02:54:17;;;;;;;1.98;1.60;;;;;;;18.49;95.86;100853.16;5013256;28;20553;-66
2022/07/16 02:56:42;;;;;;;3.00;1.75;;;;;;;18.50;96.49;100846.56;5013255;28;20030;-66
2022/07/16 02:59:08;;;;;;;1.92;1.40;;;;;;;18.57;95.62;100856.59;5011528;28;20501;-66
2022/07/16 03:01:33;;;;;;;1.92;1.40;;;;;;;18.56;96.30;100853.09;5012812;28;20088;-66
2022/07/16 03:03:59;;;;;;;2.55;1.50;;;;;;;18.63;96.16;100857.72;5007766;28;20022;-66
2022/07/16 03:06:24;;;;;;;1.98;1.40;;;;;;;18.64;95.99;100853.84;5012798;28;20095;-66
2022/07/16 03:08:50;;;;;;;3.58;1.30;;;;;;;18.64;96.55;100854.59;5011845;28;20022;-66
2022/07/16 03:11:16;;;;;;;3.35;1.10;;;;;;;18.62;96.37;100854.22;5012385;28;20045;-66
2022/07/16 03:13:42;;;;;;;1.25;1.02;;;;;;;18.63;96.10;100857.72;5012545;28;20061;-66
2022/07/16 03:16:08;;;;;;;1.20;1.05;;;;;;;18.65;96.46;100855.38;5012528;28;20396;-66
2022/07/16 03:18:33;;;;;;;1.23;0.82;;;;;;;18.68;96.47;100852.59;5011547;28;20625;-66
2022/07/16 03:20:59;;;;;;;4.22;1.40;;;;;;;18.71;95.96;100873.63;5012354;28;20422;-66
2022/07/16 03:23:24;;;;;;;1.10;0.90;;;;;;;18.69;96.65;100876.00;5012339;28;20403;-66
2022/07/16 03:25:50;;;;;;;2.58;0.80;;;;;;;18.66;96.66;100876.03;5012609;28;20156;-67
2022/07/16 03:28:16;;;;;;;1.35;0.95;;;;;;;18.68;96.58;100890.81;5011068;28;20037;-66
2022/07/16 03:30:41;;;;;;;1.17;1.00;;;;;;;18.71;96.27;100890.00;5012124;28;20103;-66
2022/07/16 03:33:07;;;;;;;1.63;1.00;;;;;;;18.68;96.60;100896.25;5011866;28;20022;-66
2022/07/16 03:35:32;;;;;;;1.48;0.98;;;;;;;18.67;96.55;100900.19;5012412;28;20037;-67
2022/07/16 03:40:42;;;;;;;1.58;0.80;;;;;;;18.69;96.43;100905.22;4993540;28;20401;-67
2022/07/16 03:43:07;;;;;;;1.38;0.82;;;;;;;18.68;96.48;100909.13;4993145;28;20138;-70
2022/07/16 03:45:33;;;;;;;1.67;0.90;;;;;;;18.68;96.41;100911.84;4992838;28;20036;-67
2022/07/16 03:47:58;;;;;;;2.10;0.95;;;;;;;18.68;96.81;100914.56;5010119;28;20022;-67
2022/07/16 03:50:24;;;;;;;1.35;0.82;;;;;;;18.69;96.51;100919.66;5012515;28;20042;-66
2022/07/16 03:52:50;;;;;;;1.30;1.00;;;;;;;18.69;96.58;100918.88;5011894;28;20109;-66
2022/07/16 03:55:16;;;;;;;3.67;0.75;;;;;;;18.65;96.74;100918.91;5004872;28;20101;-66
2022/07/16 03:57:42;;;;;;;0.80;0.60;;;;;;;18.63;96.64;100917.75;4992202;28;20054;-66
2022/07/16 04:00:09;;;;;;;1.35;0.90;;;;;;;18.63;96.71;100920.47;4992506;28;20042;-67
2022/07/16 04:02:35;;;;;;;1.50;1.00;;;;;;;18.55;96.50;100929.91;4991829;28;20037;-66
2022/07/16 04:05:00;;;;;;;1.90;0.90;;;;;;;18.58;96.80;100924.41;5008818;28;20034;-67
2022/07/16 04:07:26;;;;;;;0.90;0.80;;;;;;;18.62;96.35;100924.41;5012000;28;20018;-66
2022/07/16 04:09:52;;;;;;;0.68;0.63;;;;;;;18.62;96.61;100938.03;5012119;28;20117;-66
2022/07/16 04:12:20;;;;;;;1.55;0.90;;;;;;;18.63;97.01;100934.91;5012069;28;20033;-66
2022/07/16 04:14:46;;;;;;;2.33;0.80;;;;;;;18.71;96.93;100938.34;4993822;28;20038;-66
2022/07/16 04:17:11;;;;;;;2.45;0.82;;;;;;;18.73;96.92;100944.19;4992240;28;20441;-67
2022/07/16 04:19:37;;;;;;;1.52;0.95;;;;;;;18.69;97.50;100951.63;4992018;28;20038;-66
2022/07/16 04:22:02;;;;;;;0.98;0.80;;;;;;;18.74;97.32;100943.00;4993884;28;20038;-66
2022/07/16 04:24:28;;;;;;;0.85;0.70;;;;;;;18.76;96.56;100935.97;5011908;28;20029;-66
2022/07/16 04:26:53;;;;;;;0.95;0.73;;;;;;;18.74;96.91;100934.81;5011944;28;20034;-67
2022/07/16 04:29:19;;;;;;;1.80;0.70;;;;;;;18.78;96.16;100938.28;5011215;28;20018;-67
2022/07/16 04:31:44;;;;;;;2.17;0.90;;;;;;;18.79;96.43;100939.84;5002863;28;20180;-66
2022/07/16 04:34:10;;;;;;;1.58;0.93;;;;;;;18.77;96.60;100959.34;5001356;28;20538;-66
2022/07/16 04:36:35;;;;;;;1.40;0.60;;;;;;;18.77;96.35;100959.34;5012194;28;20030;-66
2022/07/16 04:39:01;;;;;;;2.63;0.77;;;;;;;18.78;95.86;100954.66;5006276;28;20042;-66
2022/07/16 04:41:26;;;;;;;0.60;0.50;;;;;;;18.78;95.91;100960.91;4992139;28;20080;-66
2022/07/16 04:43:52;;;;;;;1.58;1.00;;;;;;;18.80;95.67;100957.75;4991812;28;20026;-66
2022/07/16 04:46:17;;;;;;;0.93;0.60;;;;;;;18.80;96.02;100968.69;4994153;28;20511;-66
2022/07/16 04:48:43;;;;;;;0.80;0.50;;;;;;;18.82;95.74;100969.03;5011128;28;20084;-66
2022/07/16 04:51:08;;;;;;;1.30;0.55;;;;;;;18.82;95.57;100972.56;5011663;28;20034;-66
2022/07/16 04:53:37;;;;;;;0.65;0.65;;;;;;;18.78;95.09;100971.81;5011523;28;20026;-66
2022/07/16 04:56:04;;;;;;;2.03;0.70;;;;;;;18.72;95.48;100978.09;5011157;28;20030;-66
2022/07/16 04:58:29;;;;;;;1.45;0.73;;;;;;;18.77;95.70;100975.75;5010714;28;20443;-66
2022/07/16 05:00:55;;;;;;;1.50;0.60;;;;;;;18.84;95.20;100980.34;5011624;28;20072;-66
2022/07/16 05:03:23;;;;;;;1.80;0.70;;;;;;;18.95;94.17;100983.00;5011060;28;20449;-66
2022/07/16 05:05:49;;;;;;;0.60;0.47;;;;;;;18.91;94.77;100975.59;5005037;28;20266;-66
2022/07/16 05:08:15;;;;;;;5.32;0.90;;;;;;;19.05;94.82;100993.06;4995412;28;20040;-67
2022/07/16 05:10:41;;;;;;;0.85;0.70;;;;;;;19.19;94.14;101001.09;4996495;28;20070;-66
2022/07/16 05:13:10;;;;;;;0.60;0.60;;;;;;;19.30;94.43;101001.78;4996149;28;20422;-66
2022/07/16 05:15:36;;;;;;;4.50;0.43;;;;;;;19.42;93.63;100998.56;4995742;28;20049;-66
2022/07/16 05:18:02;;;;;;;1.33;0.63;;;;;;;19.41;93.10;101008.72;4995112;28;20088;-66
2022/07/16 05:20:28;;;;;;;0.90;0.70;;;;;;;19.44;92.93;101007.91;4995624;28;20518;-66
2022/07/16 05:22:54;;;;;;;1.52;0.55;;;;;;;19.48;92.51;101007.88;5010576;28;20524;-66
2022/07/16 05:25:20;;;;;;;2.13;1.13;;;;;;;19.45;92.09;101011.41;5015233;28;20061;-66
2022/07/16 05:27:46;;;;;;;0.85;0.60;;;;;;;19.43;91.20;101017.31;5014450;28;20490;-67
2022/07/16 05:30:12;;;;;;;2.67;0.70;;;;;;;19.43;91.59;101019.25;5014623;28;20454;-66
2022/07/16 05:32:38;;;;;;;7.10;0.80;;;;;;;19.46;91.75;101023.88;5014930;28;20069;-66
2022/07/16 05:35:04;;;;;;;0.93;0.60;;;;;;;19.56;91.66;101023.00;5015041;28;20281;-66
2022/07/16 05:37:30;;;;;;;0.95;0.70;;;;;;;19.66;91.70;101027.59;5014553;28;20448;-66
2022/07/16 05:39:56;;;;;;;0.77;0.50;;;;;;;19.71;90.39;101027.91;5014114;28;20176;-66
2022/07/16 05:42:21;;;;;;;1.73;0.82;;;;;;;19.66;90.27;101031.13;5014829;28;20136;-66
2022/07/16 05:44:47;;;;;;;0.47;0.45;;;;;;;19.57;90.16;101036.25;5014816;28;20053;-66
2022/07/16 05:47:13;;;;;;;1.90;0.52;;;;;;;19.49;89.83;101037.50;5014271;28;20123;-66
2022/07/16 05:49:38;;;;;;;1.02;0.60;;;;;;;19.44;89.54;101035.22;5014196;28;20042;-66
2022/07/16 05:52:04;;;;;;;5.30;0.80;;;;;;;19.38;89.59;101039.56;5015152;28;20037;-66
2022/07/16 05:54:29;;;;;;;1.30;0.65;;;;;;;19.35;89.07;101045.88;5014592;28;20045;-66
2022/07/16 05:56:55;;;;;;;1.33;0.40;;;;;;;19.22;89.03;101033.84;5013994;28;20061;-66
2022/07/16 05:59:20;;;;;;;1.73;0.50;;;;;;;19.11;88.42;101044.09;5013978;28;20041;-66
2022/07/16 06:01:46;;;;;;;2.33;0.40;;;;;;;18.99;88.32;101050.03;5014536;28;20042;-66
2022/07/16 06:04:11;;;;;;;1.15;0.47;;;;;;;19.08;88.65;101058.56;5013397;28;20117;-66
2022/07/16 06:06:37;;;;;;;3.50;0.40;;;;;;;19.19;89.01;101066.66;5013966;28;20037;-66
2022/07/16 06:09:03;;;;;;;2.65;0.40;;;;;;;19.27;88.71;101057.22;5013989;28;20080;-66
2022/07/16 06:11:28;;;;;;;3.83;0.50;;;;;;;19.31;88.32;101058.75;5014318;28;20418;-66
2022/07/16 06:13:54;;;;;;;0.70;0.40;;;;;;;19.36;87.91;101074.72;5014261;28;20487;-66
2022/07/16 06:16:20;;;;;;;3.60;0.35;;;;;;;19.38;87.66;101069.63;4996016;28;20483;-66
2022/07/16 06:18:46;;;;;;;0.38;0.38;;;;;;;19.43;87.01;101074.69;4994080;28;20038;-66
2022/07/16 06:21:11;;;;;;;2.42;0.50;;;;;;;19.49;86.36;101072.28;4994696;28;20038;-66
2022/07/16 06:23:37;;;;;;;2.97;0.50;;;;;;;19.51;85.97;101081.59;4994881;28;20533;-66
2022/07/16 06:26:02;;;;;;;0.68;0.20;;;;;;;19.53;85.81;101078.50;4994468;28;20109;-66
2022/07/16 06:28:28;;;;;;;1.50;0.70;;;;;;;19.62;85.97;101081.50;4993996;28;20101;-66
2022/07/16 06:30:54;;;;;;;0.65;0.30;;;;;;;19.67;85.71;101089.25;4994502;28;20070;-66
2022/07/16 06:33:19;;;;;;;2.45;0.65;;;;;;;19.70;85.84;101097.41;5009465;28;20076;-66
2022/07/16 06:35:45;;;;;;;0.50;0.30;;;;;;;19.62;84.75;101101.44;5013942;28;20073;-66
2022/07/16 06:38:10;;;;;;;0.38;0.30;;;;;;;19.64;84.80;101093.59;5013371;28;20384;-66
2022/07/16 06:40:36;;;;;;;0.17;0.17;;;;;;;19.71;84.69;101107.19;5013715;28;20391;-66
2022/07/16 06:43:01;;;;;;;3.47;0.80;;;;;;;19.80;84.33;101102.00;5013269;28;20045;-66
2022/07/16 06:45:27;;;;;;;1.40;0.45;;;;;;;19.91;83.63;101110.13;5013947;28;20049;-66
2022/07/16 06:47:52;;;;;;;1.27;0.45;;;;;;;20.12;83.63;101111.84;5013450;28;20026;-66
2022/07/16 06:50:18;;;;;;;0.30;0.30;;;;;;;20.35;83.03;101117.44;5007115;28;20065;-66
2022/07/16 06:52:44;;;;;;;2.80;0.50;;;;;;;20.65;82.09;101112.75;4994002;28;20045;-66
2022/07/16 06:55:09;;;;;;;1.40;0.20;;;;;;;20.85;80.93;101121.09;4993809;28;20045;-66
2022/07/16 06:57:35;;;;;;;2.08;0.30;;;;;;;21.05;78.15;101119.25;4993467;28;20038;-66
2022/07/16 07:00:01;;;;;;;2.83;0.40;;;;;;;21.11;78.34;101117.63;5005867;28;20532;-66
2022/07/16 07:02:26;;;;;;;0.93;0.20;;;;;;;21.28;77.20;101132.22;5012384;28;20030;-66
2022/07/16 07:04:52;;;;;;;3.33;0.30;;;;;;;21.44;74.47;101138.63;5013534;28;20022;-66
2022/07/16 07:07:17;;;;;;;2.33;0.40;;;;;;;21.58;74.81;101141.09;5006717;28;20026;-66
2022/07/16 07:09:43;;;;;;;1.45;0.40;;;;;;;21.86;74.16;101148.09;4993150;28;20036;-66
2022/07/16 07:12:08;;;;;;;0.30;0.30;;;;;;;21.92;73.11;101148.38;4993767;28;20038;-66
2022/07/16 07:14:34;;;;;;;0.77;0.30;;;;;;;21.98;70.35;101165.91;4993520;28;20022;-66
2022/07/16 07:16:59;;;;;;;0.40;0.30;;;;;;;22.06;67.45;101143.44;5001378;28;20034;-66
2022/07/16 07:19:24;;;;;;;0.57;0.20;;;;;;;22.27;66.87;101154.00;5012429;28;20025;-66
2022/07/16 07:21:50;;;;;;;3.15;0.20;;;;;;;22.39;64.96;101158.84;5013084;28;20042;-66
2022/07/16 07:24:16;;;;;;;1.17;0.20;;;;;;;22.42;63.21;101159.97;5012471;28;20046;-66
2022/07/16 07:26:41;;;;;;;0.32;0.30;;;;;;;22.66;64.64;101164.22;4993788;28;20045;-66
2022/07/16 07:29:07;;;;;;;3.58;0.52;;;;;;;22.84;64.06;101172.84;4992059;28;20082;-66
2022/07/16 07:31:32;;;;;;;0.73;0.20;;;;;;;22.89;62.41;101164.09;4993237;28;20038;-67
2022/07/16 07:33:58;;;;;;;1.50;0.22;;;;;;;22.93;62.68;101170.28;5000245;28;20029;-66
2022/07/16 07:36:23;;;;;;;1.98;0.38;;;;;;;22.96;62.01;101166.69;5012793;28;20132;-66
2022/07/16 07:38:49;;;;;;;1.00;0.20;;;;;;;23.02;59.72;101161.44;5011891;28;20114;-66
2022/07/16 07:41:14;;;;;;;2.15;0.38;;;;;;;23.05;59.36;101169.63;5012677;28;20037;-66
2022/07/16 07:43:40;;;;;;;1.38;0.20;;;;;;;23.17;60.07;101177.19;5012052;28;20065;-66
2022/07/16 07:46:06;;;;;;;2.60;0.20;;;;;;;23.08;58.64;101170.75;5012685;28;20462;-66
2022/07/16 07:48:33;;;;;;;0.15;0.10;;;;;;;23.02;58.23;101178.72;5011991;28;20051;-66
2022/07/16 07:50:59;;;;;;;0.80;0.20;;;;;;;23.01;58.53;101179.94;5012001;28;20122;-66
2022/07/16 07:53:24;;;;;;;2.05;0.40;;;;;;;22.92;57.25;101184.44;4993377;28;20535;-66
2022/07/16 07:55:50;;;;;;;0.40;0.13;;;;;;;22.91;59.22;101191.94;4992886;28;20054;-66
2022/07/16 07:58:15;;;;;;;0.75;0.15;;;;;;;22.75;58.65;101189.13;4992303;28;20090;-66
2022/07/16 08:00:42;;;;;;;0.20;0.20;;;;;;;22.59;59.13;101191.81;5006139;28;20495;-66
2022/07/16 08:03:08;;;;;;;0.93;0.30;;;;;;;22.39;59.27;101193.75;5011254;28;20055;-66
2022/07/16 08:05:34;;;;;;;4.63;0.73;;;;;;;22.44;60.13;101190.50;5012299;28;20399;-66
2022/07/16 08:07:59;;;;;;;0.90;0.22;;;;;;;22.58;57.95;101189.50;5011614;28;20486;-67
2022/07/16 08:10:25;;;;;;;3.13;0.35;;;;;;;22.59;58.09;101196.53;4994397;28;20041;-67
2022/07/16 08:12:51;;;;;;;0.90;0.20;;;;;;;22.63;58.72;101209.00;4992553;28;20034;-67
2022/07/16 08:15:16;;;;;;;3.08;0.20;;;;;;;22.74;58.78;101195.84;4992492;28;20041;-66
2022/07/16 08:17:42;;;;;;;1.13;0.30;;;;;;;22.90;57.58;101206.84;4991993;28;20088;-66
2022/07/16 08:20:09;;;;;;;1.35;0.30;;;;;;;22.91;54.99;101204.88;5011844;28;20034;-67
2022/07/16 08:22:35;;;;;;;2.42;0.20;;;;;;;22.87;54.09;101204.97;5011833;28;20037;-66
2022/07/16 08:27:45;;;;;;;0.60;0.30;;;;;;;22.61;54.67;101205.88;5011057;28;20042;-66
2022/07/16 08:30:10;;;;;;;2.63;0.40;;;;;;;22.53;54.28;101209.94;5012099;28;20036;-66
2022/07/16 08:32:36;;;;;;;0.47;0.30;;;;;;;22.47;55.30;101222.63;5011691;28;20030;-66
2022/07/16 08:35:03;;;;;;;1.83;0.60;;;;;;;22.37;56.60;101218.91;5011613;28;20034;-66
2022/07/16 08:37:35;;;;;;;2.22;0.50;;;;;;;22.45;56.56;101225.78;5011217;28;20029;-66
2022/07/16 08:40:04;;;;;;;3.45;0.40;;;;;;;22.76;57.50;101217.38;5011377;28;20115;-66
2022/07/16 08:42:32;;;;;;;0.35;0.28;;;;;;;23.02;55.84;101219.16;5010470;28;20398;-66
2022/07/16 08:44:59;;;;;;;1.00;0.30;;;;;;;23.36;55.70;101218.84;5011111;28;20092;-66
2022/07/16 08:47:26;;;;;;;0.55;0.40;;;;;;;23.69;53.88;101223.16;5011313;28;20038;-66
2022/07/16 08:49:52;;;;;;;2.85;0.30;;;;;;;23.82;50.85;101229.50;5011890;28;20030;-66
2022/07/16 08:52:19;;;;;;;0.88;0.30;;;;;;;23.89;50.13;101234.81;5011632;28;20038;-66
2022/07/16 08:54:47;;;;;;;0.55;0.10;;;;;;;23.90;49.83;101226.16;5011297;28;20065;-66
2022/07/16 08:57:14;;;;;;;2.30;0.20;;;;;;;23.98;49.18;101227.50;5011673;28;20029;-66
2022/07/16 08:59:40;;;;;;;0.47;0.20;;;;;;;24.15;49.75;101229.09;5011034;28;20030;-66
2022/07/16 09:02:05;;;;;;;0.15;0.10;;;;;;;24.35;48.62;101228.91;5010963;28;20494;-66
2022/07/16 09:04:31;;;;;;;0.47;0.25;;;;;;;24.56;47.83;101235.84;5010629;28;20030;-66
2022/07/16 09:06:56;;;;;;;0.35;0.10;;;;;;;24.81;47.77;101233.19;5011520;28;20092;-66
2022/07/16 09:09:22;;;;;;;2.25;0.55;;;;;;;25.02;48.01;101230.59;5011005;28;20500;-66
2022/07/16 09:11:47;;;;;;;0.63;0.20;;;;;;;25.09;46.30;101239.84;4996354;28;20023;-66
2022/07/16 09:14:15;;;;;;;1.45;0.20;;;;;;;25.10;44.43;101236.66;4991805;28;20034;-66
2022/07/16 09:16:45;;;;;;;1.08;0.20;;;;;;;24.81;44.81;101250.50;4991568;28;20043;-66
2022/07/16 09:19:19;;;;;;;1.88;0.28;;;;;;;24.57;45.31;101254.69;4995993;28;20026;-66
2022/07/16 09:22:08;;;;;;;2.25;0.20;;;;;;;24.20;46.27;101268.31;5011514;28;20120;-66
2022/07/16 09:24:45;;;;;;;1.02;0.22;;;;;;;24.00;47.90;101276.66;5011283;28;20030;-66
2022/07/16 09:27:14;;;;;;;0.63;0.10;;;;;;;23.78;47.02;101278.34;5010792;28;20099;-66
2022/07/16 09:29:50;;;;;;;0.73;0.10;;;;;;;23.67;48.90;101281.38;5010733;28;20556;-66
2022/07/16 09:32:39;;;;;;;3.50;0.40;;;;;;;23.86;49.25;101280.50;5011393;28;20109;-66
2022/07/16 09:35:11;;;;;;;0.82;0.30;;;;;;;24.13;48.83;101274.75;5010784;28;20096;-66
2022/07/16 09:37:50;;;;;;;0.98;0.22;;;;;;;24.46;47.95;101278.22;5010729;28;20034;-66
2022/07/16 09:40:28;;;;;;;0.45;0.10;;;;;;;24.84;46.48;101276.41;5509073;22;20041;-65
2022/07/16 09:42:53;;;;;;;1.58;0.20;;;;;;;25.14;46.70;101280.66;5030803;28;20029;-65
2022/07/16 09:45:21;;;;;;;0.30;0.15;;;;;;;25.27;46.43;101273.97;5030997;28;20052;-65
2022/07/16 09:47:47;;;;;;;0.03;0.00;;;;;;;25.52;46.27;101274.00;5030424;28;20375;-65
2022/07/16 09:50:13;;;;;;;1.83;0.30;;;;;;;25.85;45.54;101280.03;5015746;28;20041;-65
2022/07/16 09:52:39;;;;;;;0.93;0.20;;;;;;;26.06;44.86;101284.09;5014361;28;20398;-65
2022/07/16 09:55:06;;;;;;;2.40;0.20;;;;;;;26.25;45.55;101288.63;5014632;28;20104;-66
2022/07/16 09:57:32;;;;;;;0.50;0.10;;;;;;;26.52;44.52;101297.13;5014183;28;20110;-66
2022/07/16 09:59:59;;;;;;;2.85;0.55;;;;;;;26.71;42.76;101287.78;5014152;28;20154;-66
2022/07/16 10:02:25;;;;;;;0.30;0.10;;;;;;;26.89;43.04;101295.44;5013035;28;20112;-65
2022/07/16 10:04:51;;;;;;;0.80;0.10;;;;;;;26.94;43.00;101295.63;5014422;28;20153;-66
2022/07/16 10:07:17;;;;;;;1.38;0.22;;;;;;;26.92;43.08;101294.53;5014158;28;20101;-66
2022/07/16 10:09:43;;;;;;;2.10;0.40;;;;;;;26.84;42.95;101294.03;5013876;28;20038;-66
2022/07/16 10:12:12;;;;;;;1.20;0.30;;;;;;;26.72;41.37;101303.94;5014267;28;20026;-66
2022/07/16 10:14:43;;;;;;;1.13;0.20;;;;;;;26.53;42.46;101307.75;5014290;28;20036;-66
2022/07/16 10:17:21;;;;;;;2.17;0.30;;;;;;;26.46;42.11;101313.50;5014027;28;20033;-66
2022/07/16 10:20:08;;;;;;;0.20;0.10;;;;;;;26.29;42.04;101317.66;5013990;28;20041;-66
2022/07/16 10:22:35;;;;;;;2.25;0.22;;;;;;;25.96;43.04;101319.13;5014212;28;20101;-65
2022/07/16 10:25:09;;;;;;;0.98;0.30;;;;;;;26.04;43.03;101317.66;5014439;28;20025;-65
2022/07/16 10:27:35;;;;;;;0.20;0.10;;;;;;;25.97;44.14;101323.44;5013943;28;20141;-65
2022/07/16 10:30:26;;;;;;;1.48;0.20;;;;;;;26.34;42.97;101325.38;5013792;28;20486;-65
2022/07/16 10:33:06;;;;;;;1.55;0.10;;;;;;;26.61;43.78;101331.16;5013741;28;20041;-65
2022/07/16 10:35:37;;;;;;;0.80;0.10;;;;;;;26.78;42.39;101338.09;5014039;28;20108;-65
2022/07/16 10:38:14;;;;;;;;;;;;;;;26.61;41.96;101341.44;5013803;28;20500;-65
2022/07/16 10:40:42;;;;;;;3.85;0.20;;;;;;;26.49;44.01;101336.72;4996975;28;19987;-65
2022/07/16 10:43:11;;;;;;;1.13;0.28;;;;;;;26.63;43.85;101339.78;4994174;28;20109;-66
2022/07/16 10:45:56;;;;;;;2.50;0.30;;;;;;;26.87;44.04;101348.41;4994238;28;20033;-66
2022/07/16 10:48:27;;;;;;;1.05;0.30;;;;;;;27.26;43.48;101335.94;4993769;28;20023;-66
2022/07/16 10:51:14;;;;;;;1.00;0.20;;;;;;;27.48;42.77;101348.56;5013700;28;20033;-64
2022/07/16 10:53:58;;;;;;;1.25;0.17;;;;;;;27.51;43.17;101355.16;5013751;28;20441;-65
2022/07/16 10:56:47;;;;;;;1.45;0.25;;;;;;;27.50;42.18;101361.94;5013619;28;20038;-65
2022/07/16 10:59:15;;;;;;;4.10;0.30;;;;;;;27.51;40.91;101360.69;5012509;28;20042;-65
2022/07/16 11:01:44;;;;;;;2.67;0.20;;;;;;;27.36;40.48;101363.25;5013400;28;20406;-65
2022/07/16 11:04:10;;;;;;;0.32;0.30;;;;;;;27.16;40.54;101364.78;5012820;28;20121;-65
2022/07/16 11:06:39;;;;;;;0.43;0.20;;;;;;;26.77;42.08;101368.94;5012947;28;20125;-65
2022/07/16 11:09:08;;;;;;;0.93;0.20;;;;;;;26.55;42.61;101368.09;5012417;28;20033;-65
2022/07/16 11:11:36;;;;;;;1.17;0.38;;;;;;;26.50;41.83;101365.91;5013179;28;20037;-65
2022/07/16 11:14:03;;;;;;;0.28;0.08;;;;;;;26.51;43.66;101371.00;5012970;28;20053;-65
2022/07/16 11:16:29;;;;;;;2.88;0.40;;;;;;;26.85;44.24;101363.94;5012945;28;20037;-65
2022/07/16 11:18:55;;;;;;;3.63;0.45;;;;;;;27.04;43.63;101369.13;5012219;28;20079;-65
2022/07/16 11:21:21;;;;;;;0.70;0.10;;;;;;;27.10;43.00;101370.09;5013164;28;20057;-65
2022/07/16 11:23:55;;;;;;;2.40;0.30;;;;;;;26.94;42.93;101366.78;5012977;28;20076;-65
2022/07/16 11:26:22;;;;;;;2.35;0.17;;;;;;;26.84;43.39;101382.53;5012621;28;20045;-65
2022/07/16 11:29:02;;;;;;;2.70;0.52;;;;;;;26.88;44.03;101369.34;5012014;28;20017;-65
2022/07/16 11:31:33;;;;;;;0.77;0.30;;;;;;;27.04;42.30;101369.13;5012903;28;20080;-65
2022/07/16 11:34:04;;;;;;;2.30;0.20;;;;;;;27.03;41.74;101392.50;5012729;28;20076;-65